Søk
Bilder fra klubbens virksomhet
Tooltip
Soloflygninger
Tooltip
Espen Wiik har fløyet solo
Tooltip
Rashad Habib har fløyet solo
Tooltip
David Froholt har fløyet solo
Tooltip
Leif Olsen er pilot
  • Tilfeldig bilde
     
    Opplastet 20-05-2008
    Opplastet 11-05-2008
    Opplastet 11-05-2008
     
  • Siste bilde
     
    Opplastet 27-07-2018
    Opplastet 05-06-2018
    Opplastet 31-10-2017
     
«StartForrige1234NesteSiste»
Side 1 av 4
 
 
METAR
2020/10/27 11:50 ENCN 271150Z 16007KT 9999 FEW003 SCT008 BKN048 10/08 Q0993
TAF
2020/10/27 12:36 TAF TAF ENCN 271100Z 2712/2720 16008KT 9999 -SHRA FEW010 BKN030 TEMPO 2712/2718 4000 SHRA BR BKN008 SCT015CB BECMG 2712/2714 23012KT
LN-KFK
Operativ VFR-natt
VFR dag
07:50 - 18:31
Brannvakt
Inaktiv
Banner
Banner
Banner
Banner
Banner